Time;durP1;ratioP1;P1;durP2;ratioP2;P2;SDS_P1;SDS_P2;PMS_P1;PMS_P2;Temp;Humidity;BMP_temperature;BMP_pressure;BME280_temperature;BME280_humidity;BME280_pressure;Samples;Min_cycle;Max_cycle;Signal;HPM_P1;HPM_P2
2023/04/24 00:00:50;;;;;;;;;;;8.90;99.90;;;;;;5017006;28;20119;-79
2023/04/24 00:03:20;;;;;;;;;;;8.90;99.90;;;;;;5017007;28;19921;-79
2023/04/24 00:05:48;;;;;;;;;;;8.90;99.90;;;;;;5017578;28;19925;-79
2023/04/24 00:08:15;;;;;;;;;;;8.80;99.90;;;;;;5016750;28;19935;-77
2023/04/24 00:10:42;;;;;;;;;;;8.90;99.90;;;;;;5014505;28;19921;-77
2023/04/24 00:13:08;;;;;;;;;;;8.90;99.90;;;;;;5017442;28;19931;-78
2023/04/24 00:15:35;;;;;;;;;;;8.90;99.90;;;;;;5017321;28;20351;-78
2023/04/24 00:18:02;;;;;;;;;;;8.90;99.90;;;;;;5018220;28;19976;-78
2023/04/24 00:20:29;;;;;;;;;;;8.90;99.90;;;;;;5015861;28;19921;-77
2023/04/24 00:22:56;;;;;;;;;;;8.80;99.90;;;;;;5015610;28;19921;-78
2023/04/24 00:25:22;;;;;;;;;;;8.80;99.90;;;;;;5012491;28;20020;-77
2023/04/24 00:27:51;;;;;;;;;;;8.80;99.90;;;;;;5017533;28;19932;-78
2023/04/24 00:30:17;;;;;;;;;;;8.80;99.90;;;;;;5033697;28;20019;-78
2023/04/24 00:32:44;;;;;;;;;;;8.80;99.90;;;;;;5015161;28;20430;-78
2023/04/24 00:35:14;;;;;;;;;;;8.80;99.90;;;;;;5017729;28;19944;-77
2023/04/24 00:37:41;;;;;;;;;;;8.80;99.90;;;;;;5017571;28;20361;-77
2023/04/24 00:40:08;;;;;;;;;;;8.80;99.90;;;;;;5015511;28;19955;-78
2023/04/24 00:42:35;;;;;;;;;;;8.90;99.90;;;;;;5016784;28;19925;-77
2023/04/24 00:45:02;;;;;;;;;;;8.80;99.90;;;;;;5014914;28;19941;-78
2023/04/24 00:47:29;;;;;;;;;;;8.90;99.90;;;;;;5015034;28;20284;-78
2023/04/24 00:49:56;;;;;;;;;;;8.90;99.90;;;;;;5014458;28;19964;-77
2023/04/24 00:52:24;;;;;;;;;;;8.90;99.90;;;;;;5018289;28;20007;-78
2023/04/24 00:54:51;;;;;;;;;;;8.90;99.90;;;;;;5014535;28;19936;-78
2023/04/24 00:57:17;;;;;;;;;;;8.90;99.90;;;;;;5032300;28;19925;-78
2023/04/24 00:59:44;;;;;;;;;;;8.90;99.90;;;;;;5016866;28;20000;-77
2023/04/24 01:02:11;;;;;;;;;;;8.90;99.90;;;;;;5033015;28;19927;-78
2023/04/24 01:04:38;;;;;;;;;;;8.80;99.90;;;;;;5020231;28;19925;-78
2023/04/24 01:07:10;;;;;;;;;;;8.80;99.90;;;;;;5020481;28;20007;-78
2023/04/24 01:09:38;;;;;;;;;;;8.90;99.90;;;;;;5018917;28;19922;-78
2023/04/24 01:12:05;;;;;;;;;;;8.90;99.90;;;;;;5022044;28;20521;-78
2023/04/24 01:14:31;;;;;;;;;;;8.80;99.90;;;;;;5020787;28;20008;-78
2023/04/24 01:16:58;;;;;;;;;;;8.80;99.90;;;;;;5022519;28;19968;-78
2023/04/24 01:19:25;;;;;;;;;;;8.90;99.90;;;;;;5020076;28;19972;-78
2023/04/24 01:21:53;;;;;;;;;;;8.90;99.90;;;;;;5020052;28;19979;-77
2023/04/24 01:24:19;;;;;;;;;;;8.80;99.90;;;;;;5020524;28;19931;-77
2023/04/24 01:26:46;;;;;;;;;;;8.80;99.90;;;;;;5021218;28;19925;-77
2023/04/24 01:29:13;;;;;;;;;;;8.80;99.90;;;;;;5019212;28;19960;-77
2023/04/24 01:31:40;;;;;;;;;;;8.80;99.90;;;;;;4331979;28;10000614;-77
2023/04/24 01:34:07;;;;;;;;;;;8.80;99.90;;;;;;5032552;28;20736;-78
2023/04/24 01:36:34;;;;;;;;;;;8.90;99.90;;;;;;5024077;28;19971;-77
2023/04/24 01:39:01;;;;;;;;;;;8.90;99.90;;;;;;5023590;28;20012;-77
2023/04/24 01:41:28;;;;;;;;;;;8.90;99.90;;;;;;5040245;28;19928;-77
2023/04/24 01:43:54;;;;;;;;;;;8.90;99.90;;;;;;5024120;28;19925;-77
2023/04/24 01:46:21;;;;;;;;;;;8.80;99.90;;;;;;5023140;28;19972;-77
2023/04/24 01:48:48;;;;;;;;;;;8.90;99.90;;;;;;5023978;28;19951;-77
2023/04/24 01:51:15;;;;;;;;;;;8.90;99.90;;;;;;5023874;28;19921;-77
2023/04/24 01:53:41;;;;;;;;;;;8.90;99.90;;;;;;5023271;28;20380;-77
2023/04/24 01:56:08;;;;;;;;;;;8.90;99.90;;;;;;5023841;28;19928;-77
2023/04/24 01:58:35;;;;;;;;;;;8.90;99.90;;;;;;5022379;28;19925;-77
2023/04/24 02:01:02;;;;;;;;;;;8.80;99.90;;;;;;5024055;28;19921;-77
2023/04/24 02:03:29;;;;;;;;;;;8.80;99.90;;;;;;5023563;28;19932;-78
2023/04/24 02:05:56;;;;;;;;;;;8.80;99.90;;;;;;5022599;28;19940;-77
2023/04/24 02:08:23;;;;;;;;;;;8.80;99.90;;;;;;5022973;28;19921;-77
2023/04/24 02:10:49;;;;;;;;;;;8.80;99.90;;;;;;5019611;28;19921;-77
2023/04/24 02:13:16;;;;;;;;;;;8.80;99.90;;;;;;5023462;28;20025;-78
2023/04/24 02:15:42;;;;;;;;;;;8.80;99.90;;;;;;5021571;28;19925;-77
2023/04/24 02:18:11;;;;;;;;;;;8.70;99.90;;;;;;5023579;28;19928;-78
2023/04/24 02:20:38;;;;;;;;;;;8.70;99.90;;;;;;5023362;28;19924;-77
2023/04/24 02:23:04;;;;;;;;;;;8.70;99.90;;;;;;5023380;28;19972;-78
2023/04/24 02:25:31;;;;;;;;;;;8.80;99.90;;;;;;5037185;28;19927;-77
2023/04/24 02:27:58;;;;;;;;;;;8.80;99.90;;;;;;5022549;28;20007;-77
2023/04/24 02:30:25;;;;;;;;;;;8.80;99.90;;;;;;5021341;28;19925;-77
2023/04/24 02:32:51;;;;;;;;;;;8.80;99.90;;;;;;5021438;28;19944;-77
2023/04/24 02:35:18;;;;;;;;;;;8.80;99.90;;;;;;5038612;28;19947;-77
2023/04/24 02:37:45;;;;;;;;;;;8.80;99.90;;;;;;5017425;28;20004;-77
2023/04/24 02:40:11;;;;;;;;;;;8.80;99.90;;;;;;5020010;28;19936;-77
2023/04/24 02:42:38;;;;;;;;;;;8.80;99.90;;;;;;5021233;28;20011;-77
2023/04/24 02:45:05;;;;;;;;;;;8.80;99.90;;;;;;5021884;28;19951;-78
2023/04/24 02:47:32;;;;;;;;;;;8.70;99.90;;;;;;5022562;28;19921;-78
2023/04/24 02:49:58;;;;;;;;;;;8.70;99.90;;;;;;5018157;28;19925;-77
2023/04/24 02:52:25;;;;;;;;;;;8.70;99.90;;;;;;5017658;28;19921;-78
2023/04/24 02:54:53;;;;;;;;;;;8.70;99.90;;;;;;5022194;28;19929;-78
2023/04/24 02:57:20;;;;;;;;;;;8.70;99.90;;;;;;4970810;28;1109037;-77
2023/04/24 02:59:47;;;;;;;;;;;8.70;99.90;;;;;;5026716;28;19960;-77
2023/04/24 03:02:13;;;;;;;;;;;8.60;99.90;;;;;;5020408;28;20054;-77
2023/04/24 03:04:42;;;;;;;;;;;8.70;99.90;;;;;;5022078;28;20079;-77
2023/04/24 03:07:09;;;;;;;;;;;8.60;99.90;;;;;;5021756;28;19921;-78
2023/04/24 03:09:36;;;;;;;;;;;8.60;99.90;;;;;;5038462;28;19959;-78
2023/04/24 03:12:02;;;;;;;;;;;8.60;99.90;;;;;;5040205;28;19925;-77
2023/04/24 03:14:31;;;;;;;;;;;8.60;99.90;;;;;;5019789;28;19933;-77
2023/04/24 03:16:57;;;;;;;;;;;8.60;99.90;;;;;;5004921;28;19925;-78
2023/04/24 03:19:24;;;;;;;;;;;8.60;99.90;;;;;;5024431;28;20267;-77
2023/04/24 03:21:51;;;;;;;;;;;8.60;99.90;;;;;;5016121;28;20341;-77
2023/04/24 03:24:17;;;;;;;;;;;8.60;99.90;;;;;;5019299;28;19921;-77
2023/04/24 03:26:44;;;;;;;;;;;8.60;99.90;;;;;;5019385;28;20036;-77
2023/04/24 03:29:11;;;;;;;;;;;8.60;99.90;;;;;;5019797;28;20680;-77
2023/04/24 03:31:37;;;;;;;;;;;8.60;99.90;;;;;;5019865;28;19925;-77
2023/04/24 03:34:04;;;;;;;;;;;8.60;99.90;;;;;;5019553;28;20008;-77
2023/04/24 03:36:31;;;;;;;;;;;8.60;99.90;;;;;;5024332;28;19924;-77
2023/04/24 03:38:58;;;;;;;;;;;8.60;99.90;;;;;;5022566;28;19921;-77
2023/04/24 03:41:24;;;;;;;;;;;8.60;99.90;;;;;;5022916;28;19921;-77
2023/04/24 03:43:51;;;;;;;;;;;8.60;99.90;;;;;;5023121;28;19940;-77
2023/04/24 03:46:18;;;;;;;;;;;8.60;99.90;;;;;;5039363;28;19931;-76
2023/04/24 03:48:44;;;;;;;;;;;8.60;99.90;;;;;;5023382;28;19960;-77
2023/04/24 03:51:11;;;;;;;;;;;8.60;99.90;;;;;;5022650;28;20019;-77
2023/04/24 03:53:38;;;;;;;;;;;8.50;99.90;;;;;;5023605;28;19979;-77
2023/04/24 03:56:05;;;;;;;;;;;8.60;99.90;;;;;;5023095;28;19921;-77
2023/04/24 03:58:31;;;;;;;;;;;8.50;99.90;;;;;;5024255;28;19921;-77
2023/04/24 04:00:58;;;;;;;;;;;8.50;99.90;;;;;;5024255;28;19921;-77
2023/04/24 04:03:25;;;;;;;;;;;8.50;99.90;;;;;;5022632;28;20023;-77
2023/04/24 04:05:52;;;;;;;;;;;8.50;99.90;;;;;;5022649;28;19921;-77
2023/04/24 04:08:19;;;;;;;;;;;8.50;99.90;;;;;;5022681;28;19920;-77
2023/04/24 04:10:46;;;;;;;;;;;8.50;99.90;;;;;;5022693;28;19921;-77
2023/04/24 04:13:13;;;;;;;;;;;8.50;99.90;;;;;;5019048;28;19966;-78
2023/04/24 04:15:40;;;;;;;;;;;8.60;99.90;;;;;;5018769;28;19959;-78
2023/04/24 04:18:06;;;;;;;;;;;8.50;99.90;;;;;;5019649;28;19932;-77
2023/04/24 04:20:33;;;;;;;;;;;8.50;99.90;;;;;;5019275;28;19935;-77
2023/04/24 04:23:00;;;;;;;;;;;8.50;99.90;;;;;;5018629;28;20388;-78
2023/04/24 04:25:26;;;;;;;;;;;8.50;99.90;;;;;;5017419;28;19927;-78
2023/04/24 04:27:53;;;;;;;;;;;8.50;99.90;;;;;;5012845;28;20000;-77
2023/04/24 04:30:20;;;;;;;;;;;8.50;99.90;;;;;;5023596;28;19929;-76
2023/04/24 04:32:47;;;;;;;;;;;8.50;99.90;;;;;;5022583;28;20043;-77
2023/04/24 04:35:14;;;;;;;;;;;8.50;99.90;;;;;;5022314;28;19928;-76
2023/04/24 04:37:41;;;;;;;;;;;8.40;99.90;;;;;;5021680;28;19987;-76
2023/04/24 04:40:11;;;;;;;;;;;8.20;99.90;;;;;;5021064;28;19956;-78
2023/04/24 04:42:42;;;;;;;;;;;8.10;99.90;;;;;;5039174;28;20586;-78
2023/04/24 04:45:09;;;;;;;;;;;8.00;99.90;;;;;;5023060;28;20023;-78
2023/04/24 04:47:35;;;;;;;;;;;8.00;99.90;;;;;;5024225;28;20420;-78
2023/04/24 04:50:03;;;;;;;;;;;7.90;99.90;;;;;;5022516;28;19951;-78
2023/04/24 04:52:30;;;;;;;;;;;8.00;99.90;;;;;;5022433;28;19967;-79
2023/04/24 04:54:57;;;;;;;;;;;7.90;99.90;;;;;;5021673;28;19921;-78
2023/04/24 04:57:24;;;;;;;;;;;7.90;99.90;;;;;;5022213;28;20329;-78
2023/04/24 04:59:51;;;;;;;;;;;7.90;99.90;;;;;;5023608;28;20023;-78
2023/04/24 05:02:18;;;;;;;;;;;7.90;99.90;;;;;;5020093;28;20482;-78
2023/04/24 05:04:45;;;;;;;;;;;7.90;99.90;;;;;;5017861;28;19924;-78
2023/04/24 05:07:13;;;;;;;;;;;7.90;99.90;;;;;;5018734;28;19921;-78
2023/04/24 05:09:39;;;;;;;;;;;7.90;99.90;;;;;;5019148;28;20347;-78
2023/04/24 05:12:07;;;;;;;;;;;7.90;99.90;;;;;;5013539;28;20159;-80
2023/04/24 05:14:34;;;;;;;;;;;7.90;99.90;;;;;;5029057;28;19933;-78
2023/04/24 05:17:00;;;;;;;;;;;7.90;99.90;;;;;;5013722;28;19921;-78
2023/04/24 05:19:27;;;;;;;;;;;7.90;99.90;;;;;;5015928;28;19925;-78
2023/04/24 05:21:54;;;;;;;;;;;7.90;99.90;;;;;;5014467;28;19928;-77
2023/04/24 05:24:21;;;;;;;;;;;7.90;99.90;;;;;;5030116;28;19959;-77
2023/04/24 05:26:48;;;;;;;;;;;7.90;99.90;;;;;;5030424;28;19926;-78
2023/04/24 05:29:15;;;;;;;;;;;7.90;99.90;;;;;;4998834;28;19929;-78
2023/04/24 05:31:42;;;;;;;;;;;7.90;99.90;;;;;;5012312;28;20002;-78
2023/04/24 05:34:10;;;;;;;;;;;7.90;99.90;;;;;;5012962;28;19975;-78
2023/04/24 05:36:36;;;;;;;;;;;8.00;99.90;;;;;;5019249;28;20204;-78
2023/04/24 05:39:04;;;;;;;;;;;8.00;99.90;;;;;;5031252;28;20508;-80
2023/04/24 05:41:34;;;;;;;;;;;8.00;99.90;;;;;;5014461;28;20527;-78
2023/04/24 05:44:01;;;;;;;;;;;8.10;99.90;;;;;;5013923;28;19921;-78
2023/04/24 05:46:28;;;;;;;;;;;8.10;99.90;;;;;;5013775;28;20028;-79
2023/04/24 05:48:57;;;;;;;;;;;8.10;99.90;;;;;;5014853;28;19943;-79
2023/04/24 05:51:24;;;;;;;;;;;8.10;99.90;;;;;;5015573;28;19972;-79
2023/04/24 05:53:51;;;;;;;;;;;8.10;99.90;;;;;;5013126;28;19972;-78
2023/04/24 05:56:18;;;;;;;;;;;8.20;99.90;;;;;;5008067;28;19925;-79
2023/04/24 05:58:45;;;;;;;;;;;8.10;99.90;;;;;;5011912;28;19966;-79
2023/04/24 06:01:13;;;;;;;;;;;8.10;99.90;;;;;;5011702;28;20102;-79
2023/04/24 06:03:40;;;;;;;;;;;8.20;99.90;;;;;;5015195;28;20018;-78
2023/04/24 06:06:08;;;;;;;;;;;8.20;99.90;;;;;;5015919;28;20016;-79
2023/04/24 06:08:35;;;;;;;;;;;8.20;99.90;;;;;;5015942;28;19968;-79
2023/04/24 06:11:02;;;;;;;;;;;8.30;99.90;;;;;;5048360;28;20455;-78
2023/04/24 06:13:30;;;;;;;;;;;8.30;99.90;;;;;;5014236;28;20443;-78
2023/04/24 06:15:57;;;;;;;;;;;8.40;99.90;;;;;;5011039;28;20014;-78
2023/04/24 06:18:24;;;;;;;;;;;8.40;99.90;;;;;;5022471;28;19996;-78
2023/04/24 06:20:51;;;;;;;;;;;8.50;99.90;;;;;;5014792;28;20384;-79
2023/04/24 06:23:18;;;;;;;;;;;8.40;99.90;;;;;;5016559;28;19939;-79
2023/04/24 06:25:45;;;;;;;;;;;8.40;99.90;;;;;;5016418;28;20049;-79
2023/04/24 06:28:12;;;;;;;;;;;8.50;99.90;;;;;;5016320;28;20040;-78
2023/04/24 06:30:38;;;;;;;;;;;8.50;99.90;;;;;;5016887;28;19932;-78
2023/04/24 06:33:05;;;;;;;;;;;8.50;99.90;;;;;;5017744;28;19925;-78
2023/04/24 06:35:45;;;;;;;;;;;8.50;99.90;;;;;;5019035;28;19924;-78
2023/04/24 06:38:12;;;;;;;;;;;8.60;99.90;;;;;;5001899;28;19921;-79
2023/04/24 06:40:38;;;;;;;;;;;8.60;99.90;;;;;;5032647;28;19990;-78
2023/04/24 06:43:06;;;;;;;;;;;8.60;99.90;;;;;;5016614;28;19972;-79
2023/04/24 06:45:33;;;;;;;;;;;8.60;99.90;;;;;;5018425;28;20287;-79
2023/04/24 06:47:59;;;;;;;;;;;8.60;99.90;;;;;;5034122;28;19925;-78
2023/04/24 06:50:26;;;;;;;;;;;8.70;99.90;;;;;;5018949;28;19924;-78
2023/04/24 06:52:53;;;;;;;;;;;8.60;99.90;;;;;;5018633;28;19941;-79
2023/04/24 06:55:20;;;;;;;;;;;8.70;99.90;;;;;;5017005;28;19967;-78
2023/04/24 06:57:46;;;;;;;;;;;8.70;99.90;;;;;;5017614;28;20011;-78
2023/04/24 07:00:13;;;;;;;;;;;8.70;99.90;;;;;;5017484;28;19947;-79
2023/04/24 07:02:40;;;;;;;;;;;8.70;99.90;;;;;;5016838;28;20178;-78
2023/04/24 07:05:08;;;;;;;;;;;8.70;99.90;;;;;;5032714;28;19924;-79
2023/04/24 07:07:37;;;;;;;;;;;8.60;99.90;;;;;;5016964;28;20339;-78
2023/04/24 07:10:04;;;;;;;;;;;8.60;99.90;;;;;;4999052;28;20366;-79
2023/04/24 07:12:32;;;;;;;;;;;8.60;99.90;;;;;;5017896;28;19979;-79
2023/04/24 07:14:59;;;;;;;;;;;8.60;99.90;;;;;;5017133;28;19925;-80
2023/04/24 07:17:26;;;;;;;;;;;8.60;99.90;;;;;;5016554;28;19924;-79
2023/04/24 07:19:53;;;;;;;;;;;8.60;99.90;;;;;;5016713;28;19924;-80
2023/04/24 07:22:20;;;;;;;;;;;8.60;99.90;;;;;;5016471;28;19929;-79
2023/04/24 07:24:47;;;;;;;;;;;8.60;99.90;;;;;;5015347;28;19925;-79
2023/04/24 07:27:14;;;;;;;;;;;8.50;99.90;;;;;;5016895;28;19925;-77
2023/04/24 07:29:41;;;;;;;;;;;8.50;99.90;;;;;;5032354;28;20373;-77
2023/04/24 07:32:09;;;;;;;;;;;8.60;99.90;;;;;;5017754;28;20284;-78
2023/04/24 07:34:35;;;;;;;;;;;8.60;99.90;;;;;;5016172;28;19932;-78
2023/04/24 07:37:03;;;;;;;;;;;8.60;99.90;;;;;;5016050;28;20363;-77
2023/04/24 07:39:29;;;;;;;;;;;8.60;99.90;;;;;;5015581;28;19928;-77
2023/04/24 07:41:56;;;;;;;;;;;8.60;99.90;;;;;;5015939;28;20059;-77
2023/04/24 07:44:23;;;;;;;;;;;8.70;99.90;;;;;;5016333;28;19925;-77
2023/04/24 07:46:50;;;;;;;;;;;8.70;99.90;;;;;;5033097;28;19929;-77
2023/04/24 07:49:16;;;;;;;;;;;8.70;99.90;;;;;;5000399;28;20092;-77
2023/04/24 07:51:45;;;;;;;;;;;8.70;99.90;;;;;;5016256;28;20331;-77
2023/04/24 07:54:12;;;;;;;;;;;8.70;99.90;;;;;;5014652;28;19929;-77
2023/04/24 07:56:41;;;;;;;;;;;8.80;99.90;;;;;;5017412;28;19924;-77
2023/04/24 07:59:09;;;;;;;;;;;8.80;99.90;;;;;;5015192;28;19925;-77
2023/04/24 08:01:36;;;;;;;;;;;8.90;99.90;;;;;;5024210;28;19925;-80
2023/04/24 08:04:03;;;;;;;;;;;8.90;99.90;;;;;;5015424;28;19932;-81
2023/04/24 08:06:30;;;;;;;;;;;8.90;99.90;;;;;;5014892;28;19984;-77
2023/04/24 08:08:57;;;;;;;;;;;8.90;99.90;;;;;;5007886;28;19925;-77
2023/04/24 08:11:24;;;;;;;;;;;8.80;99.90;;;;;;5013024;28;20004;-77
2023/04/24 08:13:51;;;;;;;;;;;8.80;99.90;;;;;;5017132;28;19929;-77
2023/04/24 08:16:17;;;;;;;;;;;8.80;99.90;;;;;;5014751;28;19931;-77
2023/04/24 08:18:44;;;;;;;;;;;8.90;99.90;;;;;;5016556;28;20034;-77
2023/04/24 08:21:12;;;;;;;;;;;8.90;99.90;;;;;;5021530;28;19921;-78
2023/04/24 08:23:39;;;;;;;;;;;9.00;99.90;;;;;;5012090;28;19932;-77
2023/04/24 08:26:07;;;;;;;;;;;9.00;99.90;;;;;;5028640;28;19936;-77
2023/04/24 08:28:34;;;;;;;;;;;9.10;99.90;;;;;;5009579;28;20027;-78
2023/04/24 08:31:01;;;;;;;;;;;9.20;99.90;;;;;;5009628;28;20357;-77
2023/04/24 08:33:32;;;;;;;;;;;9.30;99.90;;;;;;5011156;28;19932;-85
2023/04/24 08:36:00;;;;;;;;;;;9.40;99.90;;;;;;5016917;28;19925;-85
2023/04/24 08:38:27;;;;;;;;;;;9.60;99.90;;;;;;5032496;28;19944;-81
2023/04/24 08:40:54;;;;;;;;;;;9.70;99.90;;;;;;5019199;28;19931;-79
2023/04/24 08:43:21;;;;;;;;;;;9.90;99.90;;;;;;5016054;28;20119;-81
2023/04/24 08:45:48;;;;;;;;;;;10.00;99.90;;;;;;5018354;28;20057;-81
2023/04/24 08:48:18;;;;;;;;;;;10.00;99.90;;;;;;5018921;28;19921;-81
2023/04/24 08:50:56;;;;;;;;;;;10.10;99.90;;;;;;5019872;28;19964;-81
2023/04/24 08:53:23;;;;;;;;;;;10.20;99.90;;;;;;5022286;28;20016;-80
2023/04/24 08:55:51;;;;;;;;;;;10.30;99.90;;;;;;5021192;28;19928;-81
2023/04/24 08:58:18;;;;;;;;;;;10.50;99.90;;;;;;5021193;28;19947;-81
2023/04/24 09:00:46;;;;;;;;;;;10.60;99.90;;;;;;5011844;28;19972;-81
2023/04/24 09:03:14;;;;;;;;;;;10.70;99.90;;;;;;5010133;28;20155;-81
2023/04/24 09:05:45;;;;;;;;;;;11.00;99.90;;;;;;5021297;28;19925;-80
2023/04/24 09:08:13;;;;;;;;;;;11.00;99.90;;;;;;5021633;28;19932;-81
2023/04/24 09:10:40;;;;;;;;;;;11.10;99.90;;;;;;5017159;28;20346;-81
2023/04/24 09:13:08;;;;;;;;;;;11.30;99.90;;;;;;5017969;28;20016;-81
2023/04/24 09:15:36;;;;;;;;;;;11.40;99.90;;;;;;5018531;28;19925;-81
2023/04/24 09:18:02;;;;;;;;;;;11.40;99.90;;;;;;5021911;28;20007;-81
2023/04/24 09:20:29;;;;;;;;;;;11.40;99.90;;;;;;5020591;28;19925;-81
2023/04/24 09:22:59;;;;;;;;;;;11.50;99.90;;;;;;5035035;28;20016;-81
2023/04/24 09:25:33;;;;;;;;;;;11.70;99.90;;;;;;5019844;28;19921;-81
2023/04/24 09:28:00;;;;;;;;;;;11.80;99.90;;;;;;5022065;28;19925;-81
2023/04/24 09:30:27;;;;;;;;;;;11.90;99.90;;;;;;5023873;28;19921;-81
2023/04/24 09:33:10;;;;;;;;;;;12.00;99.90;;;;;;5025463;28;19925;-81
2023/04/24 09:35:37;;;;;;;;;;;12.10;99.90;;;;;;5025226;28;19920;-81
2023/04/24 09:38:04;;;;;;;;;;;12.00;99.90;;;;;;5025014;28;20007;-81
2023/04/24 09:40:31;;;;;;;;;;;12.00;99.90;;;;;;5020318;28;19986;-81
2023/04/24 09:43:00;;;;;;;;;;;12.20;99.90;;;;;;5019524;28;19931;-80
2023/04/24 09:45:27;;;;;;;;;;;12.50;99.90;;;;;;5001734;28;19921;-81
2023/04/24 09:47:55;;;;;;;;;;;12.60;99.90;;;;;;5005383;28;20526;-80
2023/04/24 09:50:21;;;;;;;;;;;12.70;99.90;;;;;;5005098;28;19929;-81
2023/04/24 09:53:17;;;;;;;;;;;12.70;99.90;;;;;;5010099;28;19924;-81
2023/04/24 09:55:48;;;;;;;;;;;12.70;99.90;;;;;;5031349;28;19929;-81
2023/04/24 09:58:15;;;;;;;;;;;12.80;99.90;;;;;;5008173;28;19928;-81
2023/04/24 10:00:41;;;;;;;;;;;12.90;99.90;;;;;;5001861;28;19955;-81
2023/04/24 10:03:08;;;;;;;;;;;12.90;99.90;;;;;;5007740;28;19921;-80
2023/04/24 10:05:36;;;;;;;;;;;13.00;99.90;;;;;;5022350;28;20277;-81
2023/04/24 10:08:04;;;;;;;;;;;13.00;99.90;;;;;;5038292;28;20167;-80
2023/04/24 10:10:31;;;;;;;;;;;13.10;99.90;;;;;;5021029;28;19921;-81
2023/04/24 10:12:58;;;;;;;;;;;13.20;99.90;;;;;;5023519;28;20129;-81
2023/04/24 10:15:25;;;;;;;;;;;13.20;99.90;;;;;;5023913;28;19936;-81
2023/04/24 10:17:52;;;;;;;;;;;13.00;99.90;;;;;;5025840;28;19925;-81
2023/04/24 10:20:20;;;;;;;;;;;13.00;99.90;;;;;;5024286;28;19988;-81
2023/04/24 10:22:51;;;;;;;;;;;13.00;99.90;;;;;;5023216;28;19928;-81
2023/04/24 10:25:21;;;;;;;;;;;12.90;99.90;;;;;;5016540;28;20009;-81
2023/04/24 10:27:48;;;;;;;;;;;13.10;99.90;;;;;;4985721;28;19952;-81
2023/04/24 10:30:15;;;;;;;;;;;13.20;99.90;;;;;;5003736;28;20016;-81
2023/04/24 10:32:42;;;;;;;;;;;13.30;99.90;;;;;;5004507;28;19996;-80
2023/04/24 10:35:09;;;;;;;;;;;13.40;99.90;;;;;;5014415;28;20402;-80
2023/04/24 10:37:37;;;;;;;;;;;13.50;99.90;;;;;;5020891;28;19972;-81
2023/04/24 10:40:03;;;;;;;;;;;13.50;99.90;;;;;;5022552;28;20064;-81
2023/04/24 10:42:30;;;;;;;;;;;13.40;99.90;;;;;;5023662;28;19920;-81
2023/04/24 10:44:57;;;;;;;;;;;13.40;99.90;;;;;;5019940;28;20107;-81
2023/04/24 10:47:25;;;;;;;;;;;13.30;99.90;;;;;;5020166;28;19921;-81
2023/04/24 10:49:51;;;;;;;;;;;13.30;99.90;;;;;;5020717;28;20420;-81
2023/04/24 10:52:18;;;;;;;;;;;13.10;99.90;;;;;;5020654;28;19964;-81
2023/04/24 10:54:45;;;;;;;;;;;13.00;99.90;;;;;;5017894;28;19937;-82
2023/04/24 10:57:21;;;;;;;;;;;13.00;99.90;;;;;;5020347;28;19928;-81
2023/04/24 10:59:49;;;;;;;;;;;13.00;99.90;;;;;;5003466;28;20399;-81
2023/04/24 11:02:16;;;;;;;;;;;13.20;99.90;;;;;;5020039;28;19922;-81
2023/04/24 11:04:43;;;;;;;;;;;13.30;99.90;;;;;;5019172;28;20343;-81
2023/04/24 11:07:10;;;;;;;;;;;13.40;99.90;;;;;;5020141;28;19976;-81
2023/04/24 11:09:37;;;;;;;;;;;13.30;99.90;;;;;;5018701;28;19964;-81
2023/04/24 11:12:06;;;;;;;;;;;13.40;99.90;;;;;;5019790;28;19932;-80
2023/04/24 11:14:52;;;;;;;;;;;13.40;99.90;;;;;;5018763;28;20491;-81
2023/04/24 11:17:31;;;;;;;;;;;13.40;99.90;;;;;;5003100;28;19925;-82
2023/04/24 11:20:09;;;;;;;;;;;13.50;99.90;;;;;;5004847;28;20310;-82
2023/04/24 11:22:53;;;;;;;;;;;13.60;99.90;;;;;;5019653;28;19947;-81
2023/04/24 11:25:19;;;;;;;;;;;13.70;99.90;;;;;;5018017;28;19984;-81
2023/04/24 11:27:47;;;;;;;;;;;13.80;99.90;;;;;;5019720;28;19921;-82
2023/04/24 11:30:16;;;;;;;;;;;13.80;99.90;;;;;;5019345;28;20015;-82
2023/04/24 11:32:43;;;;;;;;;;;14.10;99.90;;;;;;5019880;28;20088;-81
2023/04/24 11:35:20;;;;;;;;;;;14.50;99.90;;;;;;5017049;28;19925;-81
2023/04/24 11:37:51;;;;;;;;;;;14.80;99.90;;;;;;5015763;28;19921;-81
2023/04/24 11:40:25;;;;;;;;;;;15.00;99.90;;;;;;5014721;28;19921;-80
2023/04/24 11:42:52;;;;;;;;;;;15.00;99.90;;;;;;5019550;28;19943;-82
2023/04/24 11:45:26;;;;;;;;;;;14.80;99.90;;;;;;5019145;28;20033;-81
2023/04/24 11:47:52;;;;;;;;;;;14.80;99.90;;;;;;5018218;28;19925;-82
2023/04/24 11:50:21;;;;;;;;;;;14.80;99.90;;;;;;5019211;28;20233;-81
2023/04/24 11:52:48;;;;;;;;;;;14.70;99.90;;;;;;5018913;28;19947;-81
2023/04/24 11:55:15;;;;;;;;;;;14.20;99.90;;;;;;5017539;28;19937;-82
2023/04/24 11:57:45;;;;;;;;;;;14.10;99.90;;;;;;5020241;28;20036;-81
2023/04/24 12:00:15;;;;;;;;;;;14.00;99.90;;;;;;5017094;28;20057;-79
2023/04/24 12:02:42;;;;;;;;;;;14.10;99.90;;;;;;5015471;28;19928;-81
2023/04/24 12:05:18;;;;;;;;;;;14.20;99.90;;;;;;5038310;28;20289;-80
2023/04/24 12:07:45;;;;;;;;;;;14.20;99.90;;;;;;5017682;28;19925;-81
2023/04/24 12:10:12;;;;;;;;;;;14.00;99.90;;;;;;5013028;28;20032;-81
2023/04/24 12:12:39;;;;;;;;;;;14.10;99.90;;;;;;5016510;28;19983;-81
2023/04/24 12:15:07;;;;;;;;;;;14.80;99.90;;;;;;5014976;28;20297;-81
2023/04/24 12:17:34;;;;;;;;;;;15.20;99.90;;;;;;5014760;28;20455;-81
2023/04/24 12:20:02;;;;;;;;;;;15.50;99.90;;;;;;5014647;28;20024;-81
2023/04/24 12:22:47;;;;;;;;;;;15.70;99.90;;;;;;5034563;28;19968;-81
2023/04/24 12:25:15;;;;;;;;;;;15.50;99.90;;;;;;5013840;28;20466;-81
2023/04/24 12:27:43;;;;;;;;;;;15.50;99.90;;;;;;5018329;28;19924;-80
2023/04/24 12:30:11;;;;;;;;;;;15.40;99.90;;;;;;5020757;28;19921;-81
2023/04/24 12:32:42;;;;;;;;;;;15.70;99.90;;;;;;5018203;28;19925;-80
2023/04/24 12:35:09;;;;;;;;;;;15.70;99.90;;;;;;5016619;28;19921;-81
2023/04/24 12:37:36;;;;;;;;;;;15.50;99.90;;;;;;5016060;28;19932;-81
2023/04/24 12:40:07;;;;;;;;;;;15.40;99.90;;;;;;5009550;28;20362;-81
2023/04/24 12:42:34;;;;;;;;;;;15.10;99.90;;;;;;5015152;28;19925;-82
2023/04/24 12:45:03;;;;;;;;;;;14.80;99.90;;;;;;5030783;28;19925;-81
2023/04/24 12:47:29;;;;;;;;;;;15.30;99.90;;;;;;5012505;28;20201;-81
2023/04/24 12:49:56;;;;;;;;;;;15.90;99.90;;;;;;5014576;28;19921;-82
2023/04/24 12:52:23;;;;;;;;;;;16.50;99.90;;;;;;5012767;28;19921;-82
2023/04/24 12:54:52;;;;;;;;;;;17.10;99.90;;;;;;5011646;28;19925;-81
2023/04/24 12:57:19;;;;;;;;;;;17.70;99.90;;;;;;5014298;28;19932;-81
2023/04/24 12:59:46;;;;;;;;;;;18.00;99.10;;;;;;5019804;28;19935;-81
2023/04/24 13:02:13;;;;;;;;;;;17.70;97.90;;;;;;5016167;28;19929;-81
2023/04/24 13:04:40;;;;;;;;;;;17.50;97.90;;;;;;5018534;28;19937;-80
2023/04/24 13:07:06;;;;;;;;;;;17.00;99.30;;;;;;5021036;28;19929;-80
2023/04/24 13:09:34;;;;;;;;;;;16.70;98.80;;;;;;5032864;28;19925;-82
2023/04/24 13:12:01;;;;;;;;;;;16.50;98.00;;;;;;5007989;28;19937;-82
2023/04/24 13:14:28;;;;;;;;;;;16.30;99.10;;;;;;5018835;28;19947;-83
2023/04/24 13:16:55;;;;;;;;;;;16.10;99.70;;;;;;5019803;28;20140;-83
2023/04/24 13:19:24;;;;;;;;;;;16.30;99.90;;;;;;5019249;28;19935;-83
2023/04/24 13:21:51;;;;;;;;;;;16.60;99.70;;;;;;5020507;28;19972;-83
2023/04/24 13:24:18;;;;;;;;;;;16.70;98.90;;;;;;5017991;28;19932;-83
2023/04/24 13:26:45;;;;;;;;;;;16.70;99.90;;;;;;5024537;28;20123;-81
2023/04/24 13:29:11;;;;;;;;;;;17.10;99.20;;;;;;5021485;28;19932;-82
2023/04/24 13:31:38;;;;;;;;;;;17.80;99.00;;;;;;5018214;28;19922;-82
2023/04/24 13:34:05;;;;;;;;;;;18.50;97.90;;;;;;5032527;28;20008;-82
2023/04/24 13:36:32;;;;;;;;;;;19.10;96.40;;;;;;5025578;28;20064;-82
2023/04/24 13:38:59;;;;;;;;;;;18.90;97.40;;;;;;5024924;28;19925;-82
2023/04/24 13:41:25;;;;;;;;;;;19.10;97.80;;;;;;5026032;28;20031;-82
2023/04/24 13:43:52;;;;;;;;;;;18.50;95.60;;;;;;5025372;28;19927;-82
2023/04/24 13:46:19;;;;;;;;;;;18.80;95.30;;;;;;5024858;28;20214;-82
2023/04/24 13:48:46;;;;;;;;;;;19.20;97.20;;;;;;5025551;28;20015;-83
2023/04/24 13:51:12;;;;;;;;;;;19.40;95.30;;;;;;5025177;28;20187;-82
2023/04/24 13:53:40;;;;;;;;;;;19.00;95.20;;;;;;5024236;28;19944;-82
2023/04/24 13:56:07;;;;;;;;;;;18.30;94.20;;;;;;5023800;28;19928;-82
2023/04/24 13:58:35;;;;;;;;;;;17.90;95.50;;;;;;5023289;28;19921;-82
2023/04/24 14:01:03;;;;;;;;;;;17.70;96.10;;;;;;5021274;28;19947;-82
2023/04/24 14:03:30;;;;;;;;;;;17.80;96.10;;;;;;5012361;28;20305;-81
2023/04/24 14:05:57;;;;;;;;;;;17.60;94.50;;;;;;5024474;28;19931;-82
2023/04/24 14:08:24;;;;;;;;;;;17.90;95.60;;;;;;5024918;28;19925;-82
2023/04/24 14:10:51;;;;;;;;;;;18.20;94.10;;;;;;5022707;28;19929;-82
2023/04/24 14:13:18;;;;;;;;;;;18.50;94.10;;;;;;5024124;28;19925;-81
2023/04/24 14:15:45;;;;;;;;;;;18.40;93.80;;;;;;5024032;28;19971;-81
2023/04/24 14:18:11;;;;;;;;;;;18.20;95.00;;;;;;5023322;28;19936;-82
2023/04/24 14:20:38;;;;;;;;;;;17.90;94.80;;;;;;5031386;28;19925;-82
2023/04/24 14:23:05;;;;;;;;;;;17.70;94.50;;;;;;5032523;28;19960;-82
2023/04/24 14:25:32;;;;;;;;;;;17.70;95.70;;;;;;5020491;28;19948;-82